Time;durP1;ratioP1;P1;durP2;ratioP2;P2;SDS_P1;SDS_P2;PMS_P1;PMS_P2;Temp;Humidity;BMP_temperature;BMP_pressure;BME280_temperature;BME280_humidity;BME280_pressure;Samples;Min_cycle;Max_cycle;Signal;HPM_P1;HPM_P2
2022/03/31 00:00:09;;;;;;;;;;;11.00;89.50;;;;;;5055120;28;20343;-90
2022/03/31 00:02:34;;;;;;;;;;;11.00;89.50;;;;;;5073783;28;19987;-90
2022/03/31 00:05:00;;;;;;;;;;;10.90;89.50;;;;;;5073510;28;20281;-90
2022/03/31 00:07:25;;;;;;;;;;;11.00;89.50;;;;;;5073393;28;19920;-90
2022/03/31 00:09:51;;;;;;;;;;;11.00;89.40;;;;;;5073404;28;19913;-90
2022/03/31 00:12:16;;;;;;;;;;;11.00;89.50;;;;;;5073473;28;19999;-89
2022/03/31 00:14:42;;;;;;;;;;;11.00;89.50;;;;;;5073378;28;19966;-90
2022/03/31 00:17:07;;;;;;;;;;;11.10;89.30;;;;;;5073385;28;19908;-90
2022/03/31 00:19:33;;;;;;;;;;;11.10;89.10;;;;;;5073345;28;19908;-90
2022/03/31 00:21:58;;;;;;;;;;;11.10;88.90;;;;;;5073325;28;19916;-90
2022/03/31 00:24:24;;;;;;;;;;;11.10;88.70;;;;;;5073553;28;19915;-90
2022/03/31 00:26:49;;;;;;;;;;;11.20;88.50;;;;;;5060970;28;20283;-90
2022/03/31 00:29:15;;;;;;;;;;;11.20;88.40;;;;;;5053202;28;19916;-90
2022/03/31 00:31:41;;;;;;;;;;;11.30;88.20;;;;;;5053037;28;19909;-89
2022/03/31 00:34:07;;;;;;;;;;;11.30;88.00;;;;;;5053101;28;20007;-90
2022/03/31 00:36:32;;;;;;;;;;;11.20;87.90;;;;;;5053070;28;20349;-90
2022/03/31 00:41:42;;;;;;;;;;;11.30;87.80;;;;;;5053290;28;20400;-90
2022/03/31 00:44:08;;;;;;;;;;;11.30;87.70;;;;;;5052963;28;19909;-90
2022/03/31 00:46:34;;;;;;;;;;;11.30;87.70;;;;;;5088636;22;19970;-89
2022/03/31 00:49:01;;;;;;;;;;;11.20;87.80;;;;;;5093167;28;19919;-90
2022/03/31 00:51:29;;;;;;;;;;;11.10;88.10;;;;;;5093078;28;20320;-90
2022/03/31 00:53:56;;;;;;;;;;;11.10;88.30;;;;;;5108816;28;20405;-90
2022/03/31 00:56:23;;;;;;;;;;;11.10;88.50;;;;;;5086345;28;19909;-90
2022/03/31 00:58:48;;;;;;;;;;;11.10;88.70;;;;;;5072880;28;20003;-90
2022/03/31 01:01:14;;;;;;;;;;;11.00;88.80;;;;;;5072775;28;19954;-89
2022/03/31 01:03:40;;;;;;;;;;;11.00;88.90;;;;;;5090425;28;20373;-89
2022/03/31 01:06:05;;;;;;;;;;;11.00;89.10;;;;;;5093015;28;20255;-90
2022/03/31 01:08:31;;;;;;;;;;;11.00;89.40;;;;;;5095926;28;19908;-90
2022/03/31 01:10:57;;;;;;;;;;;10.90;89.70;;;;;;5097090;28;19911;-90
2022/03/31 01:13:22;;;;;;;;;;;10.90;89.90;;;;;;5080343;28;19908;-90
2022/03/31 01:15:48;;;;;;;;;;;11.00;89.90;;;;;;5076775;28;19978;-90
2022/03/31 01:18:13;;;;;;;;;;;11.00;89.90;;;;;;5076706;28;19916;-89
2022/03/31 01:20:39;;;;;;;;;;;11.00;89.90;;;;;;5076638;28;20374;-90
2022/03/31 01:23:12;;;;;;;;;;;11.00;89.80;;;;;;5089836;28;19908;-90
2022/03/31 01:25:37;;;;;;;;;;;11.00;89.90;;;;;;5096806;28;19923;-90
2022/03/31 01:28:03;;;;;;;;;;;11.00;89.80;;;;;;5096373;28;19995;-89
2022/03/31 01:30:28;;;;;;;;;;;11.00;89.80;;;;;;5096702;28;19912;-90
2022/03/31 01:32:54;;;;;;;;;;;11.00;89.90;;;;;;5094952;28;19909;-90
2022/03/31 01:35:20;;;;;;;;;;;11.10;89.90;;;;;;5096723;28;19978;-89
2022/03/31 01:37:46;;;;;;;;;;;11.10;90.00;;;;;;5096584;28;19931;-90
2022/03/31 01:40:11;;;;;;;;;;;11.00;90.00;;;;;;5096511;28;20007;-90
2022/03/31 01:42:37;;;;;;;;;;;11.10;90.00;;;;;;5087098;28;20294;-90
2022/03/31 01:45:04;;;;;;;;;;;11.00;90.00;;;;;;5075939;28;19920;-90
2022/03/31 01:47:29;;;;;;;;;;;11.00;90.10;;;;;;5075987;28;19919;-90
2022/03/31 01:49:55;;;;;;;;;;;11.00;90.10;;;;;;5076090;28;19909;-90
2022/03/31 01:52:23;;;;;;;;;;;11.00;90.10;;;;;;5082708;28;19985;-89
2022/03/31 01:54:49;;;;;;;;;;;11.00;90.20;;;;;;5096276;28;20362;-89
2022/03/31 01:57:15;;;;;;;;;;;10.90;90.30;;;;;;5096270;28;19915;-90
2022/03/31 01:59:41;;;;;;;;;;;10.90;90.40;;;;;;5096189;28;19908;-90
2022/03/31 02:02:07;;;;;;;;;;;10.90;90.50;;;;;;5091127;28;20011;-90
2022/03/31 02:04:33;;;;;;;;;;;10.90;90.50;;;;;;5075825;28;19915;-90
2022/03/31 02:06:59;;;;;;;;;;;10.80;90.70;;;;;;5075772;28;19912;-90
2022/03/31 02:09:25;;;;;;;;;;;10.80;90.70;;;;;;5075693;28;19909;-90
2022/03/31 02:11:52;;;;;;;;;;;10.80;90.80;;;;;;5077904;28;19920;-90
2022/03/31 02:14:19;;;;;;;;;;;10.80;90.90;;;;;;5095932;28;19931;-89
2022/03/31 02:16:45;;;;;;;;;;;10.70;91.00;;;;;;5095901;28;19930;-89
2022/03/31 02:19:12;;;;;;;;;;;10.70;91.10;;;;;;5095656;28;19915;-90
2022/03/31 02:21:37;;;;;;;;;;;10.60;91.30;;;;;;5095551;28;19908;-89
2022/03/31 02:24:03;;;;;;;;;;;10.60;91.40;;;;;;5075424;28;19909;-89
2022/03/31 02:26:28;;;;;;;;;;;10.60;91.60;;;;;;5075377;28;19920;-90
2022/03/31 02:28:54;;;;;;;;;;;10.50;91.70;;;;;;5075395;28;19909;-90
2022/03/31 02:31:19;;;;;;;;;;;10.60;91.80;;;;;;5075216;28;19913;-89
2022/03/31 02:33:45;;;;;;;;;;;10.60;91.90;;;;;;5075710;28;19919;-90
2022/03/31 02:36:11;;;;;;;;;;;10.50;91.90;;;;;;5075227;28;20296;-90
2022/03/31 02:38:37;;;;;;;;;;;10.50;92.00;;;;;;5075166;28;20042;-90
2022/03/31 02:41:05;;;;;;;;;;;10.50;92.00;;;;;;5075208;28;19916;-89
2022/03/31 02:43:33;;;;;;;;;;;10.50;92.10;;;;;;5090362;28;20258;-89
2022/03/31 02:45:59;;;;;;;;;;;10.40;92.40;;;;;;5095095;28;19927;-89
2022/03/31 02:48:25;;;;;;;;;;;10.40;92.70;;;;;;5095234;28;20388;-90
2022/03/31 02:50:51;;;;;;;;;;;10.40;92.90;;;;;;5095198;28;19911;-89
2022/03/31 02:56:00;;;;;;;;;;;10.40;92.90;;;;;;5074854;28;19920;-89
2022/03/31 02:58:26;;;;;;;;;;;10.50;92.80;;;;;;5074825;28;19913;-89
2022/03/31 03:00:52;;;;;;;;;;;10.50;92.70;;;;;;5074749;28;19916;-89
2022/03/31 03:03:17;;;;;;;;;;;10.50;92.60;;;;;;5087674;28;19919;-90
2022/03/31 03:05:45;;;;;;;;;;;10.40;92.60;;;;;;5094831;28;19912;-89
2022/03/31 03:08:11;;;;;;;;;;;10.40;92.70;;;;;;5094837;28;19908;-90
2022/03/31 03:10:37;;;;;;;;;;;10.40;92.80;;;;;;5094745;28;19965;-90
2022/03/31 03:13:03;;;;;;;;;;;10.40;92.80;;;;;;5083625;28;19948;-90
2022/03/31 03:15:28;;;;;;;;;;;10.40;92.80;;;;;;5074435;28;19909;-89
2022/03/31 03:17:54;;;;;;;;;;;10.40;92.80;;;;;;5074411;28;19931;-89
2022/03/31 03:20:20;;;;;;;;;;;10.40;92.80;;;;;;5074616;28;20455;-90
2022/03/31 03:22:47;;;;;;;;;;;10.40;92.90;;;;;;5082603;28;20285;-90
2022/03/31 03:25:15;;;;;;;;;;;10.40;92.90;;;;;;5094454;28;20400;-90
2022/03/31 03:27:42;;;;;;;;;;;10.40;93.00;;;;;;5094476;28;20281;-89
2022/03/31 03:30:08;;;;;;;;;;;10.40;93.00;;;;;;5093611;28;20019;-90
2022/03/31 03:32:34;;;;;;;;;;;10.40;93.10;;;;;;5087809;28;19912;-89
2022/03/31 03:35:00;;;;;;;;;;;10.40;93.10;;;;;;5074103;28;19932;-89
2022/03/31 03:37:26;;;;;;;;;;;10.40;93.10;;;;;;5074034;28;20378;-89
2022/03/31 03:39:51;;;;;;;;;;;10.40;93.20;;;;;;5073961;28;19962;-90
2022/03/31 03:42:17;;;;;;;;;;;10.40;93.20;;;;;;5077421;28;19912;-90
2022/03/31 03:44:42;;;;;;;;;;;10.50;93.10;;;;;;5094435;28;19908;-89
2022/03/31 03:47:08;;;;;;;;;;;10.40;93.10;;;;;;5093925;28;19923;-90
2022/03/31 03:49:33;;;;;;;;;;;10.50;93.10;;;;;;5094115;28;19991;-90
2022/03/31 03:51:59;;;;;;;;;;;10.40;93.10;;;;;;5092818;28;19908;-89
2022/03/31 03:54:25;;;;;;;;;;;10.40;93.10;;;;;;5073699;28;19947;-90
2022/03/31 03:56:51;;;;;;;;;;;10.50;93.10;;;;;;5074204;28;19973;-90
2022/03/31 03:59:17;;;;;;;;;;;10.50;93.10;;;;;;5073545;28;20369;-90
2022/03/31 04:01:42;;;;;;;;;;;10.50;93.00;;;;;;5073572;28;19908;-89
2022/03/31 04:04:08;;;;;;;;;;;10.50;93.00;;;;;;5091689;28;19920;-90
2022/03/31 04:06:34;;;;;;;;;;;10.50;93.00;;;;;;5093648;28;19943;-90
2022/03/31 04:08:59;;;;;;;;;;;10.50;92.90;;;;;;5093717;28;19908;-89
2022/03/31 04:11:25;;;;;;;;;;;10.50;93.00;;;;;;5083801;28;20259;-89
2022/03/31 04:13:51;;;;;;;;;;;10.40;93.00;;;;;;5073427;28;19917;-90
2022/03/31 04:16:17;;;;;;;;;;;10.40;93.00;;;;;;5073464;28;19908;-89
2022/03/31 04:18:42;;;;;;;;;;;10.50;93.00;;;;;;5073368;28;20000;-89
2022/03/31 04:21:08;;;;;;;;;;;10.50;92.90;;;;;;5080177;28;19951;-89
2022/03/31 04:23:35;;;;;;;;;;;10.40;92.80;;;;;;5093828;28;19908;-88
2022/03/31 04:26:01;;;;;;;;;;;10.40;93.10;;;;;;5093708;28;20421;-88
2022/03/31 04:28:27;;;;;;;;;;;10.40;93.30;;;;;;5093465;28;19977;-89
2022/03/31 04:30:54;;;;;;;;;;;10.40;93.50;;;;;;5088329;28;19920;-89
2022/03/31 04:33:20;;;;;;;;;;;10.30;93.60;;;;;;5073220;28;19955;-89
2022/03/31 04:35:45;;;;;;;;;;;10.30;93.80;;;;;;5073197;28;19962;-89
2022/03/31 04:38:11;;;;;;;;;;;10.30;93.90;;;;;;5073137;28;19909;-89
2022/03/31 04:40:36;;;;;;;;;;;10.30;93.90;;;;;;5075114;28;19916;-89
2022/03/31 04:43:02;;;;;;;;;;;10.30;93.90;;;;;;5073233;28;19916;-89
2022/03/31 04:45:28;;;;;;;;;;;10.30;93.90;;;;;;5072902;28;19916;-90
2022/03/31 04:47:54;;;;;;;;;;;10.30;93.90;;;;;;5073010;28;19915;-89
2022/03/31 04:50:19;;;;;;;;;;;10.30;93.90;;;;;;5078579;28;20374;-89
2022/03/31 04:52:45;;;;;;;;;;;10.30;94.00;;;;;;5092871;28;19908;-89
2022/03/31 04:55:10;;;;;;;;;;;10.30;94.10;;;;;;5093043;28;19944;-89
2022/03/31 04:57:36;;;;;;;;;;;10.20;94.10;;;;;;5092953;28;19915;-89
2022/03/31 05:12:42;;;;;;;;;;;10.20;94.10;;;;;;5107095;27;19917;-88
2022/03/31 05:18:33;;;;;;;;;;;10.10;94.30;;;;;;5110650;27;19912;-88
2022/03/31 05:20:59;;;;;;;;;;;10.10;94.30;;;;;;5098229;28;19918;-88
2022/03/31 05:23:24;;;;;;;;;;;10.10;94.30;;;;;;5090658;28;20262;-88
2022/03/31 05:25:50;;;;;;;;;;;10.10;94.40;;;;;;5090583;28;20396;-89
2022/03/31 05:28:16;;;;;;;;;;;10.10;94.40;;;;;;5103876;28;20385;-89
2022/03/31 05:30:42;;;;;;;;;;;10.10;94.50;;;;;;5094356;28;20290;-88
2022/03/31 05:35:27;;;;;;;;;;;10.10;94.60;;;;;;5113903;27;19916;-89
2022/03/31 05:37:53;;;;;;;;;;;10.10;94.70;;;;;;5091646;28;19958;-89
2022/03/31 05:40:19;;;;;;;;;;;10.10;94.70;;;;;;5086402;28;19912;-89
2022/03/31 05:42:44;;;;;;;;;;;10.00;94.50;;;;;;5089467;28;19981;-88
2022/03/31 05:45:12;;;;;;;;;;;10.10;94.70;;;;;;5088958;28;19948;-88
2022/03/31 05:47:38;;;;;;;;;;;10.10;94.60;;;;;;5088257;28;19912;-88
2022/03/31 05:56:21;;;;;;;;;;;10.10;94.50;;;;;;5110240;27;19922;-89
2022/03/31 05:58:47;;;;;;;;;;;10.30;94.50;;;;;;5088704;28;19912;-88
2022/03/31 06:01:54;;;;;;;;;;;10.30;94.50;;;;;;5107023;27;19923;-88
2022/03/31 06:04:21;;;;;;;;;;;10.30;94.50;;;;;;5106517;28;19912;-88
2022/03/31 06:06:50;;;;;;;;;;;10.30;94.50;;;;;;5106900;28;19919;-88
2022/03/31 06:09:16;;;;;;;;;;;10.30;94.50;;;;;;5102746;28;20018;-88
2022/03/31 06:11:42;;;;;;;;;;;10.30;94.60;;;;;;5097777;28;20012;-89
2022/03/31 06:14:08;;;;;;;;;;;10.40;94.60;;;;;;5097164;28;19919;-89
2022/03/31 06:16:34;;;;;;;;;;;10.40;94.60;;;;;;5090391;28;19995;-88
2022/03/31 06:18:59;;;;;;;;;;;10.40;94.70;;;;;;5096326;28;20015;-88
2022/03/31 06:21:25;;;;;;;;;;;10.40;94.70;;;;;;5109365;28;19924;-88
2022/03/31 06:23:51;;;;;;;;;;;10.40;94.70;;;;;;5094971;28;20439;-88
2022/03/31 06:29:21;;;;;;;;;;;10.50;94.60;;;;;;5099948;27;19925;-88
2022/03/31 06:31:46;;;;;;;;;;;10.60;94.30;;;;;;5101725;28;19913;-88
2022/03/31 06:34:12;;;;;;;;;;;10.60;93.90;;;;;;5075908;28;19913;-88
2022/03/31 06:36:38;;;;;;;;;;;10.70;93.70;;;;;;5079848;28;19916;-89
2022/03/31 06:40:01;;;;;;;;;;;10.70;93.60;;;;;;5107439;27;19916;-88
2022/03/31 06:42:27;;;;;;;;;;;10.70;93.60;;;;;;5085621;28;19912;-88
2022/03/31 06:44:53;;;;;;;;;;;10.70;93.70;;;;;;5092682;28;20011;-88
2022/03/31 06:47:18;;;;;;;;;;;10.90;93.90;;;;;;5089338;28;20016;-89
2022/03/31 06:49:44;;;;;;;;;;;11.10;93.80;;;;;;5084937;28;20313;-88
2022/03/31 06:52:09;;;;;;;;;;;11.10;93.60;;;;;;5099897;28;20350;-88
2022/03/31 06:54:35;;;;;;;;;;;11.30;93.40;;;;;;5088209;28;19912;-89
2022/03/31 06:57:00;;;;;;;;;;;11.40;93.10;;;;;;5086774;28;20386;-89
2022/03/31 06:59:29;;;;;;;;;;;11.40;92.80;;;;;;5092234;28;19925;-89
2022/03/31 07:01:54;;;;;;;;;;;11.50;92.30;;;;;;5082597;28;19916;-88
2022/03/31 07:04:20;;;;;;;;;;;11.40;91.90;;;;;;5094066;28;19978;-88
2022/03/31 07:06:45;;;;;;;;;;;11.40;91.70;;;;;;5093199;28;20341;-88
2022/03/31 07:09:11;;;;;;;;;;;11.40;91.30;;;;;;5094562;28;20354;-88
2022/03/31 07:11:37;;;;;;;;;;;11.40;91.10;;;;;;5085008;28;19965;-88
2022/03/31 07:14:05;;;;;;;;;;;11.40;91.00;;;;;;5085168;28;20208;-89
2022/03/31 07:16:31;;;;;;;;;;;11.40;91.10;;;;;;5084009;28;19913;-89
2022/03/31 07:18:58;;;;;;;;;;;11.40;91.10;;;;;;5080621;28;19927;-89
2022/03/31 07:23:53;;;;;;;;;;;11.50;91.00;;;;;;5107794;27;20335;-88
2022/03/31 07:26:19;;;;;;;;;;;11.70;90.40;;;;;;5103288;28;19912;-88
2022/03/31 07:28:44;;;;;;;;;;;11.80;90.20;;;;;;5107419;28;19912;-89
2022/03/31 07:31:10;;;;;;;;;;;11.80;90.10;;;;;;5107329;28;20365;-89
2022/03/31 07:36:07;;;;;;;;;;;11.80;90.00;;;;;;5109074;27;20304;-88
2022/03/31 07:41:18;;;;;;;;;;;11.90;86.20;;;;;;5106192;27;20396;-88
2022/03/31 07:43:44;;;;;;;;;;;11.80;86.00;;;;;;5106006;28;19912;-89
2022/03/31 07:46:10;;;;;;;;;;;11.70;87.10;;;;;;5108639;28;20009;-88
2022/03/31 07:48:36;;;;;;;;;;;11.70;87.30;;;;;;5112474;28;19918;-89
2022/03/31 07:53:27;;;;;;;;;;;11.80;87.40;;;;;;5113124;27;19916;-88
2022/03/31 07:55:54;;;;;;;;;;;12.00;87.60;;;;;;5111473;28;19912;-88
2022/03/31 08:01:11;;;;;;;;;;;12.10;87.40;;;;;;5092205;27;19969;-88
2022/03/31 08:03:38;;;;;;;;;;;12.30;87.20;;;;;;5096508;28;19935;-89
2022/03/31 08:06:03;;;;;;;;;;;12.40;86.60;;;;;;5089929;28;19913;-88
2022/03/31 08:08:29;;;;;;;;;;;12.40;86.50;;;;;;5090720;28;19920;-89
2022/03/31 08:10:56;;;;;;;;;;;12.40;86.30;;;;;;5090139;28;19912;-89
2022/03/31 08:13:22;;;;;;;;;;;12.40;86.00;;;;;;5086473;28;19920;-89
2022/03/31 08:15:48;;;;;;;;;;;12.10;87.10;;;;;;5090264;28;19952;-88
2022/03/31 08:18:13;;;;;;;;;;;12.20;87.00;;;;;;5093206;28;19956;-88
2022/03/31 08:20:39;;;;;;;;;;;12.30;87.00;;;;;;5091513;28;20002;-88
2022/03/31 08:23:05;;;;;;;;;;;12.30;87.50;;;;;;5091959;28;19920;-88
2022/03/31 08:25:30;;;;;;;;;;;12.10;87.10;;;;;;5088924;28;19912;-89
2022/03/31 08:27:56;;;;;;;;;;;12.00;87.90;;;;;;5084952;28;19965;-88
2022/03/31 08:30:23;;;;;;;;;;;12.00;87.70;;;;;;5089857;28;20422;-88
2022/03/31 08:32:49;;;;;;;;;;;12.20;87.50;;;;;;5084732;28;19991;-88
2022/03/31 08:40:42;;;;;;;;;;;12.30;87.20;;;;;;5104832;27;20321;-89
2022/03/31 08:43:46;;;;;;;;;;;12.70;86.30;;;;;;5087364;27;19923;-89
2022/03/31 08:46:12;;;;;;;;;;;12.90;85.80;;;;;;5094812;28;19913;-88
2022/03/31 08:48:38;;;;;;;;;;;12.80;85.00;;;;;;5094825;28;19966;-88
2022/03/31 08:51:04;;;;;;;;;;;12.80;85.30;;;;;;5089814;28;19911;-88
2022/03/31 08:53:30;;;;;;;;;;;12.80;85.20;;;;;;5120742;27;20378;-88
2022/03/31 08:55:56;;;;;;;;;;;12.90;84.70;;;;;;5116478;28;19920;-88
2022/03/31 08:58:21;;;;;;;;;;;13.10;84.60;;;;;;5088419;28;19921;-88
2022/03/31 09:00:47;;;;;;;;;;;13.20;83.90;;;;;;5093736;28;19920;-87
2022/03/31 09:03:12;;;;;;;;;;;13.30;82.50;;;;;;5090192;28;20361;-88
2022/03/31 09:05:42;;;;;;;;;;;13.40;81.80;;;;;;5096369;28;19919;-88
2022/03/31 09:08:12;;;;;;;;;;;13.50;81.30;;;;;;5101947;28;19912;-88
2022/03/31 09:10:40;;;;;;;;;;;13.60;81.40;;;;;;5095822;28;19912;-88
2022/03/31 09:13:17;;;;;;;;;;;13.70;80.90;;;;;;5090909;28;19920;-88
2022/03/31 09:15:47;;;;;;;;;;;13.70;78.40;;;;;;5087368;28;19919;-87
2022/03/31 09:18:15;;;;;;;;;;;13.50;79.50;;;;;;5085849;28;19919;-88
2022/03/31 09:24:33;;;;;;;;;;;13.40;79.20;;;;;;5099917;27;20946;-89
2022/03/31 09:27:00;;;;;;;;;;;13.50;79.10;;;;;;5101439;27;19913;-89
2022/03/31 09:30:59;;;;;;;;;;;13.70;78.30;;;;;;5099571;27;20313;-89
2022/03/31 09:33:25;;;;;;;;;;;13.80;78.30;;;;;;5087738;28;19919;-88
2022/03/31 09:36:01;;;;;;;;;;;14.10;77.00;;;;;;5090515;28;19999;-89
2022/03/31 09:38:27;;;;;;;;;;;14.30;76.20;;;;;;5090409;28;19912;-89
2022/03/31 09:40:54;;;;;;;;;;;14.40;75.70;;;;;;5089541;28;19916;-88
2022/03/31 09:43:19;;;;;;;;;;;14.50;75.90;;;;;;5090147;28;19912;-88
2022/03/31 09:45:45;;;;;;;;;;;14.60;74.40;;;;;;5089658;28;19918;-88
2022/03/31 09:48:21;;;;;;;;;;;14.80;73.40;;;;;;5088706;28;19966;-88
2022/03/31 09:50:47;;;;;;;;;;;14.90;73.20;;;;;;5088250;28;19962;-89
2022/03/31 09:53:13;;;;;;;;;;;15.10;71.80;;;;;;5089909;28;19912;-89
2022/03/31 09:55:41;;;;;;;;;;;15.20;71.80;;;;;;5089070;28;19913;-89
2022/03/31 09:58:08;;;;;;;;;;;15.20;72.00;;;;;;5089836;28;19914;-88
2022/03/31 10:00:34;;;;;;;;;;;15.40;71.60;;;;;;5089710;28;19978;-89
2022/03/31 10:03:00;;;;;;;;;;;15.50;70.30;;;;;;5089854;28;20388;-89
2022/03/31 10:05:26;;;;;;;;;;;15.70;69.10;;;;;;5089070;28;19916;-88
2022/03/31 10:08:20;;;;;;;;;;;15.60;67.30;;;;;;5109841;27;19961;-89
2022/03/31 10:10:57;;;;;;;;;;;15.20;68.90;;;;;;5110893;27;19912;-89
2022/03/31 10:13:25;;;;;;;;;;;14.90;69.20;;;;;;5110946;28;20447;-89
2022/03/31 10:16:03;;;;;;;;;;;14.90;70.70;;;;;;5110844;28;19908;-88
2022/03/31 10:18:29;;;;;;;;;;;14.90;70.00;;;;;;5110536;28;19912;-89
2022/03/31 10:20:57;;;;;;;;;;;15.10;69.00;;;;;;5110767;28;19915;-89
2022/03/31 10:26:07;;;;;;;;;;;15.60;68.40;;;;;;5111073;28;19977;-89
2022/03/31 10:28:33;;;;;;;;;;;15.90;68.10;;;;;;5110366;28;20374;-89
2022/03/31 10:30:59;;;;;;;;;;;16.10;67.70;;;;;;5110444;28;19908;-88
2022/03/31 10:33:30;;;;;;;;;;;16.30;68.00;;;;;;5110085;28;19912;-89
2022/03/31 10:36:09;;;;;;;;;;;16.30;67.50;;;;;;5110281;28;19948;-89
2022/03/31 10:38:35;;;;;;;;;;;16.40;68.80;;;;;;5110156;28;20286;-89
2022/03/31 10:41:02;;;;;;;;;;;16.60;67.30;;;;;;5110313;28;19930;-89
2022/03/31 10:43:29;;;;;;;;;;;16.80;66.00;;;;;;5110315;28;19908;-89
2022/03/31 10:45:55;;;;;;;;;;;16.90;67.10;;;;;;5110277;28;19940;-89
2022/03/31 10:48:20;;;;;;;;;;;16.90;65.60;;;;;;5110207;28;19919;-89
2022/03/31 10:50:47;;;;;;;;;;;16.90;66.40;;;;;;5110409;28;19916;-89
2022/03/31 10:53:13;;;;;;;;;;;16.90;66.90;;;;;;5110124;28;19951;-89
2022/03/31 10:55:40;;;;;;;;;;;17.00;66.00;;;;;;5110047;28;19962;-89
2022/03/31 10:58:06;;;;;;;;;;;16.90;64.80;;;;;;5109836;28;20391;-89
2022/03/31 11:00:32;;;;;;;;;;;16.70;65.90;;;;;;5110100;28;19995;-88
2022/03/31 11:02:57;;;;;;;;;;;16.50;66.10;;;;;;5109896;28;19955;-88
2022/03/31 11:05:25;;;;;;;;;;;16.40;67.00;;;;;;5109848;28;19915;-89
2022/03/31 11:08:00;;;;;;;;;;;16.20;66.90;;;;;;5109380;28;20362;-88
2022/03/31 11:10:25;;;;;;;;;;;16.20;67.50;;;;;;5091577;28;20408;-89
2022/03/31 11:12:51;;;;;;;;;;;16.20;68.00;;;;;;5089388;28;19912;-89
2022/03/31 11:15:17;;;;;;;;;;;16.30;67.60;;;;;;5089706;28;19908;-89
2022/03/31 11:17:43;;;;;;;;;;;16.40;66.90;;;;;;5088860;28;19958;-89
2022/03/31 11:22:48;;;;;;;;;;;16.40;67.20;;;;;;5110981;27;20320;-89
2022/03/31 11:25:14;;;;;;;;;;;16.40;66.40;;;;;;5110656;28;20324;-89
2022/03/31 11:27:41;;;;;;;;;;;16.40;66.40;;;;;;5110636;28;19919;-89
2022/03/31 11:30:08;;;;;;;;;;;16.40;66.80;;;;;;5109530;28;19981;-88
2022/03/31 11:32:35;;;;;;;;;;;16.30;66.70;;;;;;5108833;28;19919;-88
2022/03/31 11:35:01;;;;;;;;;;;16.00;67.60;;;;;;5109113;28;19957;-89
2022/03/31 11:37:27;;;;;;;;;;;15.80;67.80;;;;;;5110418;28;19915;-89
2022/03/31 11:39:52;;;;;;;;;;;15.80;67.90;;;;;;5110479;28;19912;-89
2022/03/31 11:42:19;;;;;;;;;;;15.60;68.00;;;;;;5104383;28;19920;-89
2022/03/31 11:44:44;;;;;;;;;;;15.60;69.20;;;;;;5107081;28;19919;-89
2022/03/31 11:47:20;;;;;;;;;;;15.40;68.70;;;;;;5110492;28;19908;-88
2022/03/31 11:49:56;;;;;;;;;;;15.30;69.80;;;;;;5090099;28;20451;-89
2022/03/31 11:52:27;;;;;;;;;;;15.10;69.80;;;;;;5090045;28;19919;-88
2022/03/31 11:54:53;;;;;;;;;;;15.00;68.30;;;;;;5104246;28;19927;-88
2022/03/31 11:57:19;;;;;;;;;;;14.90;69.20;;;;;;5110101;28;19912;-89
2022/03/31 11:59:44;;;;;;;;;;;14.80;71.10;;;;;;5110295;28;19916;-89
2022/03/31 12:02:17;;;;;;;;;;;14.80;70.70;;;;;;5110163;28;19918;-88
2022/03/31 12:04:46;;;;;;;;;;;14.90;71.50;;;;;;5109899;28;20407;-89
2022/03/31 12:07:12;;;;;;;;;;;14.90;71.50;;;;;;5109753;28;19916;-89
2022/03/31 12:09:39;;;;;;;;;;;14.90;70.30;;;;;;5109603;28;19912;-89
2022/03/31 12:12:06;;;;;;;;;;;14.90;71.60;;;;;;5109619;28;20350;-90
2022/03/31 12:14:34;;;;;;;;;;;14.90;73.10;;;;;;5090253;28;19917;-89
2022/03/31 12:16:59;;;;;;;;;;;14.90;73.30;;;;;;5109959;28;19908;-89
2022/03/31 12:19:36;;;;;;;;;;;15.00;73.60;;;;;;5107794;28;20025;-89
2022/03/31 12:22:01;;;;;;;;;;;15.10;72.50;;;;;;5108698;28;19920;-89
2022/03/31 12:24:27;;;;;;;;;;;15.10;72.70;;;;;;5096329;28;20370;-89
2022/03/31 12:26:54;;;;;;;;;;;15.00;72.50;;;;;;5090764;28;20342;-89
2022/03/31 12:29:20;;;;;;;;;;;14.90;74.80;;;;;;5089482;28;20420;-88
2022/03/31 12:31:46;;;;;;;;;;;14.80;75.40;;;;;;5089157;28;19908;-89
2022/03/31 12:34:14;;;;;;;;;;;14.70;76.40;;;;;;5075249;28;19923;-89
2022/03/31 12:36:41;;;;;;;;;;;14.50;76.40;;;;;;5083891;28;19912;-89
2022/03/31 12:39:08;;;;;;;;;;;14.40;77.60;;;;;;5077094;28;19912;-89
2022/03/31 12:41:38;;;;;;;;;;;14.30;78.30;;;;;;5090024;28;19920;-89
2022/03/31 12:44:08;;;;;;;;;;;14.20;79.20;;;;;;5095146;28;19912;-89
2022/03/31 12:46:44;;;;;;;;;;;14.10;79.60;;;;;;5095539;28;19935;-89
2022/03/31 12:49:10;;;;;;;;;;;13.90;79.60;;;;;;5089098;28;20320;-89
2022/03/31 12:51:46;;;;;;;;;;;13.80;80.30;;;;;;5089310;28;19916;-89
2022/03/31 12:56:25;;;;;;;;;;;13.70;80.50;;;;;;5009859;28;19971;-89
2022/03/31 12:58:51;;;;;;;;;;;13.60;81.80;;;;;;5008897;28;20008;-89
2022/03/31 13:01:20;;;;;;;;;;;13.50;82.40;;;;;;5007338;28;19914;-89
2022/03/31 13:03:48;;;;;;;;;;;13.40;82.60;;;;;;5014188;28;19939;-88
2022/03/31 13:06:52;;;;;;;;;;;13.40;83.20;;;;;;5084968;27;19916;-89
2022/03/31 13:09:17;;;;;;;;;;;13.50;82.90;;;;;;5090087;28;19918;-89
2022/03/31 13:11:43;;;;;;;;;;;13.60;82.20;;;;;;5091469;28;19919;-89
2022/03/31 13:14:12;;;;;;;;;;;13.60;82.60;;;;;;5100695;28;20007;-89
2022/03/31 13:16:40;;;;;;;;;;;13.60;82.50;;;;;;5098602;28;19912;-89
2022/03/31 13:19:06;;;;;;;;;;;13.50;83.00;;;;;;5083026;28;19958;-89
2022/03/31 13:21:32;;;;;;;;;;;13.40;83.00;;;;;;5105735;28;19912;-89
2022/03/31 13:23:58;;;;;;;;;;;13.40;83.30;;;;;;5087526;28;19912;-88
2022/03/31 13:26:23;;;;;;;;;;;13.30;83.80;;;;;;5100566;28;19923;-88
2022/03/31 13:28:49;;;;;;;;;;;13.30;84.50;;;;;;5098089;28;19913;-89
2022/03/31 13:31:14;;;;;;;;;;;13.20;84.00;;;;;;5091803;28;19920;-88
2022/03/31 13:33:40;;;;;;;;;;;13.10;83.80;;;;;;5085711;28;19913;-88
2022/03/31 13:36:05;;;;;;;;;;;13.00;84.50;;;;;;5093524;28;19965;-88
2022/03/31 13:38:34;;;;;;;;;;;12.80;85.00;;;;;;5104853;28;19908;-88
2022/03/31 13:41:00;;;;;;;;;;;12.70;86.00;;;;;;5080812;28;19987;-88
2022/03/31 13:43:26;;;;;;;;;;;12.60;86.10;;;;;;5106414;28;19959;-89
2022/03/31 13:45:51;;;;;;;;;;;12.60;86.90;;;;;;5083058;28;19916;-88
2022/03/31 13:48:17;;;;;;;;;;;12.60;87.30;;;;;;5100172;28;19908;-88
2022/03/31 13:50:44;;;;;;;;;;;12.60;87.70;;;;;;5091153;28;19916;-88
2022/03/31 13:55:54;;;;;;;;;;;12.60;86.50;;;;;;5088357;28;19965;-88
2022/03/31 14:01:13;;;;;;;;;;;12.60;87.20;;;;;;5087139;28;19915;-88
2022/03/31 14:03:41;;;;;;;;;;;12.60;87.40;;;;;;5094801;28;20007;-88
2022/03/31 14:06:06;;;;;;;;;;;12.60;87.30;;;;;;5084105;28;20387;-88
2022/03/31 14:09:17;;;;;;;;;;;12.70;87.30;;;;;;5106261;27;19957;-89
2022/03/31 14:11:43;;;;;;;;;;;12.70;86.80;;;;;;5103916;28;19919;-89
2022/03/31 14:14:10;;;;;;;;;;;12.90;86.70;;;;;;5099312;28;20449;-89
2022/03/31 14:16:40;;;;;;;;;;;12.90;86.90;;;;;;5104693;28;19939;-88
2022/03/31 14:19:06;;;;;;;;;;;13.10;86.80;;;;;;5096831;28;19924;-89
2022/03/31 14:21:32;;;;;;;;;;;13.20;86.50;;;;;;5092017;28;19959;-89
2022/03/31 14:25:40;;;;;;;;;;;13.30;85.80;;;;;;5116821;27;19927;-88
2022/03/31 14:28:05;;;;;;;;;;;13.50;85.40;;;;;;5119942;27;19918;-88
2022/03/31 14:30:32;;;;;;;;;;;13.50;84.10;;;;;;5121520;28;20007;-88
2022/03/31 14:32:58;;;;;;;;;;;13.50;83.60;;;;;;5110536;28;19916;-88
2022/03/31 14:35:24;;;;;;;;;;;13.60;83.70;;;;;;5113830;28;20370;-88
2022/03/31 14:37:49;;;;;;;;;;;13.90;84.00;;;;;;5122455;28;20434;-89
2022/03/31 14:40:16;;;;;;;;;;;14.40;83.90;;;;;;5129480;28;20392;-88
2022/03/31 14:42:41;;;;;;;;;;;14.90;81.40;;;;;;5104055;27;20388;-88
2022/03/31 14:45:07;;;;;;;;;;;15.30;79.90;;;;;;5098086;28;20006;-88
2022/03/31 14:47:33;;;;;;;;;;;15.40;79.10;;;;;;5119505;28;19965;-88
2022/03/31 14:49:58;;;;;;;;;;;15.70;77.60;;;;;;5117297;28;19908;-88
2022/03/31 14:52:24;;;;;;;;;;;15.90;77.00;;;;;;5110703;28;20358;-88
2022/03/31 14:54:50;;;;;;;;;;;15.90;75.40;;;;;;5116492;28;19916;-88
2022/03/31 14:57:17;;;;;;;;;;;16.10;74.80;;;;;;5103216;28;19920;-88
2022/03/31 14:59:42;;;;;;;;;;;16.00;74.60;;;;;;5106200;28;19919;-88
2022/03/31 15:02:08;;;;;;;;;;;16.00;73.90;;;;;;5096377;28;19912;-88
2022/03/31 15:04:33;;;;;;;;;;;16.20;73.80;;;;;;5124644;28;19934;-89
2022/03/31 15:07:01;;;;;;;;;;;16.20;73.50;;;;;;5108242;28;19972;-89
2022/03/31 15:14:55;;;;;;;;;;;15.20;74.90;;;;;;5092552;28;19927;-88
2022/03/31 15:17:21;;;;;;;;;;;14.60;74.90;;;;;;5090889;28;20276;-88
2022/03/31 15:21:18;;;;;;;;;;;14.30;76.60;;;;;;5111468;27;20366;-88
2022/03/31 15:23:43;;;;;;;;;;;14.40;76.90;;;;;;5075064;28;19919;-88
2022/03/31 15:26:10;;;;;;;;;;;14.50;76.90;;;;;;5076824;28;20354;-88
2022/03/31 15:28:36;;;;;;;;;;;14.70;76.70;;;;;;5077433;28;19943;-88
2022/03/31 15:31:02;;;;;;;;;;;14.70;75.30;;;;;;5072878;28;20007;-88
2022/03/31 15:33:28;;;;;;;;;;;14.80;75.10;;;;;;5077509;28;20421;-88